createdAt,value
2022-07-30T00:00:37.140Z,4.82
2022-07-30T00:02:41.974Z,3.45
2022-07-30T00:04:43.729Z,3.78
2022-07-30T00:06:45.390Z,7.75
2022-07-30T00:08:46.995Z,7.60
2022-07-30T00:10:49.114Z,5.03
2022-07-30T00:12:51.970Z,9.00
2022-07-30T00:14:53.596Z,4.50
2022-07-30T00:16:55.597Z,5.70
2022-07-30T00:18:57.304Z,3.80
2022-07-30T00:20:59.653Z,4.90
2022-07-30T00:23:04.950Z,5.15
2022-07-30T00:25:06.770Z,6.05
2022-07-30T00:27:08.348Z,4.05
2022-07-30T00:29:10.637Z,4.93
2022-07-30T00:31:12.223Z,3.97
2022-07-30T00:33:13.832Z,5.78
2022-07-30T00:35:15.648Z,5.97
2022-07-30T00:37:17.253Z,8.55
2022-07-30T00:39:18.825Z,3.53
2022-07-30T00:41:20.611Z,6.03
2022-07-30T00:43:22.210Z,4.13
2022-07-30T00:45:23.842Z,9.88
2022-07-30T00:47:25.652Z,3.67
2022-07-30T00:49:27.286Z,2.95
2022-07-30T00:51:28.922Z,4.45
2022-07-30T00:53:30.783Z,5.60
2022-07-30T00:55:32.675Z,4.82
2022-07-30T00:57:34.246Z,4.22
2022-07-30T00:59:36.632Z,4.93
2022-07-30T01:01:38.360Z,4.80
2022-07-30T01:03:42.682Z,2.42
2022-07-30T01:05:44.576Z,6.13
2022-07-30T01:07:46.125Z,5.47
2022-07-30T01:09:48.083Z,9.70
2022-07-30T01:11:50.442Z,4.43
2022-07-30T01:13:52.307Z,4.20
2022-07-30T01:15:53.924Z,3.55
2022-07-30T01:17:58.382Z,3.58
2022-07-30T01:20:04.104Z,4.43
2022-07-30T01:22:21.840Z,4.10
2022-07-30T01:24:28.633Z,6.75
2022-07-30T01:26:30.479Z,5.75
2022-07-30T01:28:42.871Z,7.18
2022-07-30T01:30:45.606Z,5.15
2022-07-30T01:32:47.576Z,6.93
2022-07-30T01:34:50.156Z,4.25
2022-07-30T01:36:52.442Z,3.42
2022-07-30T01:38:54.250Z,5.00
2022-07-30T01:40:56.127Z,3.80
2022-07-30T01:42:59.817Z,2.83
2022-07-30T01:45:02.046Z,5.43
2022-07-30T01:47:04.592Z,6.90
2022-07-30T01:49:08.379Z,5.72
2022-07-30T01:51:12.665Z,6.68
2022-07-30T01:53:19.129Z,4.45
2022-07-30T01:55:41.155Z,7.38
2022-07-30T01:57:43.702Z,5.15
2022-07-30T01:59:49.165Z,3.60
2022-07-30T02:01:50.966Z,8.75
2022-07-30T02:03:53.168Z,6.57
2022-07-30T02:06:04.135Z,6.65
2022-07-30T02:08:11.950Z,7.43
2022-07-30T02:10:17.357Z,3.60
2022-07-30T02:12:29.521Z,5.85
2022-07-30T02:14:38.076Z,4.38
2022-07-30T02:16:41.804Z,7.30
2022-07-30T02:18:43.445Z,5.20
2022-07-30T02:20:50.419Z,4.75
2022-07-30T02:22:55.105Z,6.75
2022-07-30T02:24:58.109Z,4.30
2022-07-30T02:27:04.842Z,5.15
2022-07-30T02:29:11.098Z,3.25
2022-07-30T02:31:16.937Z,8.60
2022-07-30T02:33:22.454Z,6.22
2022-07-30T02:35:24.606Z,7.22
2022-07-30T02:37:44.097Z,7.18
2022-07-30T02:39:48.302Z,7.43
2022-07-30T02:41:50.316Z,10.32
2022-07-30T02:43:52.975Z,3.87
2022-07-30T02:45:55.447Z,3.95
2022-07-30T02:48:00.370Z,3.63
2022-07-30T02:50:02.352Z,5.75
2022-07-30T02:52:04.638Z,7.03
2022-07-30T02:54:07.725Z,4.80
2022-07-30T02:56:09.843Z,8.77
2022-07-30T02:58:11.938Z,4.85
2022-07-30T03:00:13.826Z,5.45
2022-07-30T03:02:16.016Z,3.17
2022-07-30T03:04:21.940Z,4.07
2022-07-30T03:06:25.514Z,5.50
2022-07-30T03:08:27.725Z,6.70
2022-07-30T03:10:29.917Z,5.93
2022-07-30T03:12:32.946Z,5.43
2022-07-30T03:14:34.575Z,4.03
2022-07-30T03:16:38.363Z,8.25
2022-07-30T03:18:41.661Z,9.52
2022-07-30T03:20:45.950Z,3.60
2022-07-30T03:22:50.773Z,3.22
2022-07-30T03:24:54.298Z,3.28
2022-07-30T03:26:56.789Z,18.42
2022-07-30T03:28:58.963Z,4.35
2022-07-30T03:31:01.587Z,6.25
2022-07-30T03:33:03.438Z,7.00
2022-07-30T03:35:08.780Z,6.18
2022-07-30T03:37:19.642Z,4.28
2022-07-30T03:39:22.313Z,6.40
2022-07-30T03:41:24.423Z,5.70
2022-07-30T03:43:32.993Z,3.83
2022-07-30T03:45:36.737Z,7.88
2022-07-30T03:49:40.648Z,3.05
2022-07-30T03:51:42.674Z,6.87
2022-07-30T03:53:45.166Z,3.75
2022-07-30T03:55:47.467Z,8.52
2022-07-30T03:57:49.055Z,3.78
2022-07-30T03:59:51.749Z,6.03
2022-07-30T04:01:53.755Z,4.32
2022-07-30T04:03:55.934Z,7.72
2022-07-30T04:05:58.285Z,5.35
2022-07-30T04:07:59.919Z,3.87
2022-07-30T04:10:02.590Z,9.18
2022-07-30T04:12:04.489Z,6.38
2022-07-30T04:14:06.098Z,6.72
2022-07-30T04:16:41.643Z,3.90
2022-07-30T04:18:44.411Z,6.75
2022-07-30T04:20:47.350Z,3.53
2022-07-30T04:24:52.109Z,5.25
2022-07-30T04:26:53.790Z,5.75
2022-07-30T04:28:55.441Z,4.70
2022-07-30T04:30:57.374Z,3.05
2022-07-30T04:32:59.018Z,4.32
2022-07-30T04:35:00.602Z,7.57
2022-07-30T04:37:02.747Z,4.60
2022-07-30T04:39:04.743Z,5.47
2022-07-30T04:41:06.347Z,8.82
2022-07-30T04:43:08.172Z,4.07
2022-07-30T04:45:11.721Z,4.55
2022-07-30T04:47:14.779Z,7.40
2022-07-30T04:49:17.760Z,4.57
2022-07-30T04:51:26.817Z,3.70
2022-07-30T04:53:29.212Z,6.07
2022-07-30T04:55:32.788Z,9.05
2022-07-30T04:57:35.749Z,8.13
2022-07-30T04:59:39.633Z,4.97
2022-07-30T05:01:42.087Z,7.43
2022-07-30T05:03:44.748Z,6.85
2022-07-30T05:05:47.077Z,5.13
2022-07-30T05:07:49.064Z,6.25
2022-07-30T05:09:50.679Z,10.68
2022-07-30T05:11:53.131Z,6.88
2022-07-30T05:13:54.950Z,5.95
2022-07-30T05:15:56.587Z,3.33
2022-07-30T05:17:58.693Z,4.03
2022-07-30T05:20:00.487Z,5.82
2022-07-30T05:22:06.704Z,6.22
2022-07-30T05:24:08.591Z,4.72
2022-07-30T05:26:10.645Z,2.78
2022-07-30T05:28:12.489Z,5.38
2022-07-30T05:30:14.078Z,5.53
2022-07-30T05:32:16.012Z,3.83
2022-07-30T05:34:19.374Z,4.55
2022-07-30T05:36:21.249Z,4.80
2022-07-30T05:38:24.659Z,5.05
2022-07-30T05:40:30.381Z,4.82
2022-07-30T05:42:31.945Z,5.93
2022-07-30T05:44:33.682Z,3.58
2022-07-30T05:46:35.424Z,2.97
2022-07-30T05:48:37.105Z,7.95
2022-07-30T05:50:38.868Z,5.65
2022-07-30T05:52:40.434Z,6.18
2022-07-30T05:54:42.049Z,14.52
2022-07-30T05:56:43.860Z,13.20
2022-07-30T05:58:45.523Z,10.45
2022-07-30T06:00:47.322Z,3.28
2022-07-30T06:02:49.130Z,8.03
2022-07-30T06:04:50.828Z,5.53
2022-07-30T06:06:52.462Z,6.88
2022-07-30T06:08:54.294Z,10.68
2022-07-30T06:10:56.009Z,9.88
2022-07-30T06:12:57.617Z,6.25
2022-07-30T06:14:59.436Z,9.10
2022-07-30T06:17:01.284Z,11.30
2022-07-30T06:19:03.594Z,5.30
2022-07-30T06:21:05.421Z,6.53
2022-07-30T06:23:10.917Z,6.72
2022-07-30T06:25:12.804Z,3.63
2022-07-30T06:27:20.631Z,6.20
2022-07-30T06:29:22.252Z,4.72
2022-07-30T06:31:24.068Z,6.15
2022-07-30T06:33:25.982Z,9.57
2022-07-30T06:35:27.550Z,6.35
2022-07-30T06:38:00.652Z,5.70
2022-07-30T06:39:57.902Z,4.95
2022-07-30T06:41:59.836Z,5.57
2022-07-30T06:44:01.390Z,5.40
2022-07-30T06:46:03.246Z,9.00
2022-07-30T06:48:05.035Z,4.53
2022-07-30T06:50:07.095Z,5.10
2022-07-30T06:52:12.663Z,4.93
2022-07-30T06:54:17.288Z,3.45
2022-07-30T06:56:18.848Z,4.88
2022-07-30T06:58:25.378Z,13.45
2022-07-30T07:00:27.395Z,11.35
2022-07-30T07:02:29.128Z,9.50
2022-07-30T07:04:32.237Z,6.00
2022-07-30T07:08:38.264Z,5.47
2022-07-30T07:10:40.045Z,5.63
2022-07-30T07:12:41.843Z,3.95
2022-07-30T07:14:43.460Z,4.63
2022-07-30T07:16:45.284Z,4.78
2022-07-30T07:18:53.978Z,4.32
2022-07-30T07:20:55.563Z,5.68
2022-07-30T07:22:57.553Z,4.78
2022-07-30T07:24:59.279Z,4.10
2022-07-30T07:27:01.200Z,6.15
2022-07-30T07:29:05.267Z,6.03
2022-07-30T07:31:07.672Z,5.90
2022-07-30T07:33:09.554Z,5.63
2022-07-30T07:35:13.707Z,6.73
2022-07-30T07:37:16.013Z,6.82
2022-07-30T07:39:17.558Z,8.02
2022-07-30T07:41:19.401Z,7.82
2022-07-30T07:43:21.033Z,8.68
2022-07-30T07:45:22.689Z,6.85
2022-07-30T07:47:24.643Z,6.97
2022-07-30T07:49:26.431Z,6.10
2022-07-30T07:51:46.852Z,6.75
2022-07-30T07:54:05.926Z,6.03
2022-07-30T07:56:11.954Z,4.03
2022-07-30T08:00:23.385Z,6.82
2022-07-30T08:02:26.009Z,5.68
2022-07-30T08:06:29.650Z,6.70
2022-07-30T08:08:31.273Z,7.28
2022-07-30T08:10:32.990Z,5.50
2022-07-30T08:12:35.202Z,5.77
2022-07-30T08:14:36.752Z,8.43
2022-07-30T08:16:38.530Z,6.43
2022-07-30T08:18:40.635Z,9.55
2022-07-30T08:20:42.189Z,6.32
2022-07-30T08:22:44.152Z,6.53
2022-07-30T08:24:45.951Z,12.60
2022-07-30T08:26:47.612Z,8.18
2022-07-30T08:28:49.185Z,5.50
2022-07-30T08:30:51.287Z,8.88
2022-07-30T08:32:52.826Z,6.85
2022-07-30T08:34:54.380Z,7.05
2022-07-30T08:36:56.216Z,4.65
2022-07-30T08:38:57.774Z,7.03
2022-07-30T08:40:59.430Z,7.18
2022-07-30T08:43:03.210Z,4.03
2022-07-30T08:45:05.594Z,9.18
2022-07-30T08:47:09.898Z,7.47
2022-07-30T08:49:12.430Z,5.10
2022-07-30T08:51:15.238Z,6.97
2022-07-30T08:55:21.327Z,7.25
2022-07-30T08:57:23.145Z,6.88
2022-07-30T08:59:25.248Z,10.07
2022-07-30T09:01:47.119Z,6.53
2022-07-30T09:03:48.687Z,5.40
2022-07-30T09:05:50.339Z,6.35
2022-07-30T09:07:52.176Z,5.40
2022-07-30T09:09:53.759Z,4.45
2022-07-30T09:11:55.537Z,7.68
2022-07-30T09:14:08.652Z,10.32
2022-07-30T09:18:11.886Z,5.10
2022-07-30T09:20:13.981Z,5.82
2022-07-30T09:22:17.317Z,7.85
2022-07-30T09:24:18.897Z,4.55
2022-07-30T09:26:20.754Z,7.53
2022-07-30T09:28:28.343Z,3.90
2022-07-30T09:30:49.516Z,5.93
2022-07-30T09:32:52.654Z,7.10
2022-07-30T09:34:54.199Z,6.75
2022-07-30T09:36:59.330Z,9.95
2022-07-30T09:39:01.233Z,4.07
2022-07-30T09:41:12.183Z,10.90
2022-07-30T09:43:18.808Z,10.77
2022-07-30T09:45:20.938Z,7.95
2022-07-30T09:47:32.573Z,7.25
2022-07-30T09:49:34.219Z,8.10
2022-07-30T09:51:56.301Z,5.97
2022-07-30T09:54:01.321Z,8.13
2022-07-30T09:56:22.838Z,4.88
2022-07-30T09:58:40.159Z,9.65
2022-07-30T10:00:49.222Z,3.20
2022-07-30T10:02:51.702Z,5.30
2022-07-30T10:06:56.167Z,4.05
2022-07-30T10:08:57.751Z,6.47
2022-07-30T10:11:00.303Z,4.45
2022-07-30T10:13:11.113Z,7.15
2022-07-30T10:15:18.878Z,8.15
2022-07-30T10:17:22.107Z,9.32
2022-07-30T10:19:40.265Z,7.57
2022-07-30T10:21:44.139Z,6.97
2022-07-30T10:23:46.083Z,4.90
2022-07-30T10:25:55.678Z,6.15
2022-07-30T10:27:58.179Z,8.02
2022-07-30T10:32:02.001Z,6.75
2022-07-30T10:34:04.311Z,9.18
2022-07-30T10:36:09.003Z,9.00
2022-07-30T10:38:13.827Z,13.35
2022-07-30T10:40:30.437Z,6.72
2022-07-30T10:42:41.570Z,5.25
2022-07-30T10:44:55.913Z,9.15
2022-07-30T10:47:07.680Z,5.88
2022-07-30T10:49:18.727Z,6.43
2022-07-30T10:51:34.579Z,7.70
2022-07-30T10:53:39.903Z,5.75
2022-07-30T10:55:41.924Z,10.65
2022-07-30T10:58:02.342Z,6.00
2022-07-30T11:00:04.423Z,9.98
2022-07-30T11:02:09.451Z,6.78
2022-07-30T11:04:25.728Z,8.82
2022-07-30T11:06:28.746Z,5.30
2022-07-30T11:08:30.952Z,9.38
2022-07-30T11:12:41.537Z,7.60
2022-07-30T11:14:46.388Z,9.20
2022-07-30T11:16:51.852Z,9.18
2022-07-30T11:19:50.334Z,5.97
2022-07-30T11:21:25.894Z,7.20
2022-07-30T11:23:30.335Z,8.13
2022-07-30T11:25:50.308Z,14.55
2022-07-30T11:27:53.910Z,8.07
2022-07-30T11:29:55.497Z,5.07
2022-07-30T11:31:58.750Z,10.38
2022-07-30T11:34:20.454Z,4.15
2022-07-30T11:36:27.627Z,6.18
2022-07-30T11:38:49.130Z,7.03
2022-07-30T11:40:50.977Z,7.10
2022-07-30T11:43:12.502Z,8.18
2022-07-30T11:45:16.966Z,10.48
2022-07-30T11:47:18.894Z,8.45
2022-07-30T11:49:20.579Z,11.60
2022-07-30T11:51:22.191Z,11.63
2022-07-30T11:53:24.056Z,7.43
2022-07-30T11:55:30.637Z,8.98
2022-07-30T11:57:42.850Z,9.68
2022-07-30T11:59:56.700Z,6.53
2022-07-30T12:02:01.611Z,9.48
2022-07-30T12:04:04.814Z,10.57
2022-07-30T12:06:07.784Z,8.82
2022-07-30T12:08:36.110Z,8.68
2022-07-30T12:10:31.939Z,8.18
2022-07-30T12:12:33.713Z,12.68
2022-07-30T12:14:39.140Z,6.53
2022-07-30T12:16:48.599Z,11.57
2022-07-30T12:18:50.429Z,7.90
2022-07-30T12:20:59.578Z,13.18
2022-07-30T12:23:02.526Z,11.73
2022-07-30T12:25:08.497Z,10.68
2022-07-30T12:27:10.133Z,10.20
2022-07-30T12:29:13.949Z,9.20
2022-07-30T12:31:16.239Z,7.45
2022-07-30T12:33:18.038Z,12.07
2022-07-30T12:35:19.672Z,23.45
2022-07-30T12:37:21.782Z,13.45
2022-07-30T12:39:24.690Z,12.23
2022-07-30T12:43:46.778Z,12.02
2022-07-30T12:45:51.854Z,7.80
2022-07-30T12:47:56.176Z,13.13
2022-07-30T12:50:00.697Z,10.23
2022-07-30T12:52:03.357Z,9.57
2022-07-30T12:54:15.364Z,8.20
2022-07-30T12:56:21.645Z,8.23
2022-07-30T12:58:23.248Z,6.45
2022-07-30T13:00:33.192Z,7.82
2022-07-30T13:02:36.152Z,8.75
2022-07-30T13:05:10.863Z,6.63
2022-07-30T13:09:22.588Z,7.95
2022-07-30T13:11:36.851Z,8.63
2022-07-30T13:13:38.428Z,6.18
2022-07-30T13:15:40.331Z,9.80
2022-07-30T13:17:55.803Z,9.20
2022-07-30T13:19:57.679Z,10.05
2022-07-30T13:21:59.592Z,7.95
2022-07-30T13:24:01.570Z,7.40
2022-07-30T13:26:03.819Z,8.73
2022-07-30T13:28:05.698Z,16.05
2022-07-30T13:30:07.651Z,8.32
2022-07-30T13:32:09.241Z,6.57
2022-07-30T13:34:11.911Z,11.07
2022-07-30T13:36:15.785Z,8.57
2022-07-30T13:38:17.509Z,5.32
2022-07-30T13:40:19.315Z,7.03
2022-07-30T13:42:20.902Z,8.48
2022-07-30T13:44:23.225Z,7.50
2022-07-30T13:46:25.362Z,5.55
2022-07-30T13:48:28.892Z,9.15
2022-07-30T13:50:30.502Z,9.75
2022-07-30T13:52:32.311Z,10.05
2022-07-30T13:54:35.490Z,9.93
2022-07-30T13:56:40.729Z,8.80
2022-07-30T13:58:42.929Z,8.40
2022-07-30T14:00:45.366Z,8.00
2022-07-30T14:02:47.379Z,10.00
2022-07-30T14:04:49.170Z,10.32
2022-07-30T14:06:51.327Z,12.73
2022-07-30T14:08:53.049Z,7.18
2022-07-30T14:10:54.917Z,11.32
2022-07-30T14:12:56.673Z,9.57
2022-07-30T14:14:58.280Z,9.35
2022-07-30T14:17:00.392Z,10.10
2022-07-30T14:19:02.192Z,9.88
2022-07-30T14:21:03.998Z,8.65
2022-07-30T14:23:05.871Z,10.57
2022-07-30T14:25:07.803Z,10.48
2022-07-30T14:27:10.413Z,8.82
2022-07-30T14:31:13.753Z,11.05
2022-07-30T14:33:15.365Z,9.85
2022-07-30T14:35:18.247Z,14.23
2022-07-30T14:37:20.551Z,11.90
2022-07-30T14:39:22.261Z,9.55
2022-07-30T14:41:25.109Z,9.57
2022-07-30T14:43:27.891Z,12.82
2022-07-30T14:45:29.789Z,11.63
2022-07-30T14:47:31.658Z,8.18
2022-07-30T14:49:33.309Z,8.52
2022-07-30T14:51:34.969Z,9.30
2022-07-30T14:53:38.034Z,10.90
2022-07-30T14:55:40.298Z,15.07
2022-07-30T14:57:43.447Z,9.15
2022-07-30T14:59:45.431Z,6.85
2022-07-30T15:01:47.970Z,7.72
2022-07-30T15:03:49.585Z,10.85
2022-07-30T15:05:52.452Z,8.35
2022-07-30T15:07:54.153Z,11.77
2022-07-30T15:09:55.770Z,10.00
2022-07-30T15:12:08.884Z,10.48
2022-07-30T15:14:20.599Z,8.45
2022-07-30T15:16:22.877Z,7.60
2022-07-30T15:18:24.632Z,9.10
2022-07-30T15:20:26.298Z,7.88
2022-07-30T15:22:27.880Z,19.08
2022-07-30T15:24:30.351Z,9.00
2022-07-30T15:26:31.942Z,12.55
2022-07-30T15:28:33.490Z,9.63
2022-07-30T15:30:35.492Z,13.23
2022-07-30T15:32:37.212Z,11.90
2022-07-30T15:34:38.769Z,11.15
2022-07-30T15:36:40.614Z,8.65
2022-07-30T15:38:43.276Z,9.63
2022-07-30T15:40:44.842Z,10.18
2022-07-30T15:42:46.601Z,10.27
2022-07-30T15:45:14.237Z,8.13
2022-07-30T15:47:13.212Z,7.68
2022-07-30T15:49:15.124Z,11.75
2022-07-30T15:51:16.742Z,11.20
2022-07-30T15:53:18.462Z,11.82
2022-07-30T15:55:20.414Z,7.55
2022-07-30T15:57:21.974Z,10.65
2022-07-30T15:59:23.542Z,5.82
2022-07-30T16:01:25.411Z,11.48
2022-07-30T16:03:27.055Z,11.52
2022-07-30T16:05:28.763Z,7.97
2022-07-30T16:07:50.497Z,9.40
2022-07-30T16:09:52.181Z,6.65
2022-07-30T16:11:53.792Z,6.22
2022-07-30T16:13:55.550Z,11.05
2022-07-30T16:15:57.109Z,7.65
2022-07-30T16:17:59.510Z,5.78
2022-07-30T16:20:01.306Z,8.38
2022-07-30T16:22:03.109Z,6.35
2022-07-30T16:24:05.165Z,3.63
2022-07-30T16:26:07.182Z,5.67
2022-07-30T16:28:08.868Z,7.75
2022-07-30T16:30:10.721Z,6.88
2022-07-30T16:32:12.549Z,5.10
2022-07-30T16:34:14.175Z,12.70
2022-07-30T16:36:16.821Z,6.68
2022-07-30T16:38:19.182Z,4.72
2022-07-30T16:40:20.861Z,5.53
2022-07-30T16:42:22.462Z,3.85
2022-07-30T16:44:24.224Z,4.82
2022-07-30T16:46:25.810Z,5.68
2022-07-30T16:48:27.644Z,8.02
2022-07-30T16:50:30.366Z,9.20
2022-07-30T16:52:32.553Z,5.57
2022-07-30T16:54:34.085Z,5.60
2022-07-30T16:56:35.869Z,7.35
2022-07-30T16:58:37.598Z,7.57
2022-07-30T17:00:39.353Z,6.88
2022-07-30T17:02:41.459Z,6.13
2022-07-30T17:04:43.063Z,7.32
2022-07-30T17:06:44.729Z,8.98
2022-07-30T17:08:46.648Z,4.18
2022-07-30T17:10:50.439Z,4.88
2022-07-30T17:12:52.074Z,7.70
2022-07-30T17:14:54.862Z,5.20
2022-07-30T17:16:57.161Z,7.85
2022-07-30T17:18:58.790Z,7.38
2022-07-30T17:21:00.568Z,10.30
2022-07-30T17:23:02.358Z,6.18
2022-07-30T17:25:04.808Z,5.65
2022-07-30T17:27:06.697Z,7.55
2022-07-30T17:29:17.475Z,6.63
2022-07-30T17:31:19.101Z,9.18
2022-07-30T17:33:20.874Z,5.95
2022-07-30T17:35:22.895Z,6.80
2022-07-30T17:37:24.813Z,4.90
2022-07-30T17:40:19.690Z,6.47
2022-07-30T17:41:56.255Z,6.97
2022-07-30T17:44:04.487Z,7.38
2022-07-30T17:46:07.330Z,12.67
2022-07-30T17:48:08.969Z,27.45
2022-07-30T17:50:11.581Z,7.57
2022-07-30T17:52:13.417Z,7.00
2022-07-30T17:54:14.999Z,8.98
2022-07-30T17:56:26.885Z,7.82
2022-07-30T17:58:29.115Z,6.45
2022-07-30T18:00:30.785Z,10.75
2022-07-30T18:02:32.438Z,13.07
2022-07-30T18:04:34.801Z,6.70
2022-07-30T18:06:36.553Z,10.60
2022-07-30T18:08:38.274Z,10.57
2022-07-30T18:10:40.487Z,12.15
2022-07-30T18:12:49.098Z,6.30
2022-07-30T18:14:51.944Z,16.48
2022-07-30T18:16:54.413Z,8.65
2022-07-30T18:18:55.989Z,10.07
2022-07-30T18:20:57.650Z,8.55
2022-07-30T18:22:59.818Z,7.13
2022-07-30T18:25:02.094Z,12.73
2022-07-30T18:27:03.838Z,10.95
2022-07-30T18:29:08.066Z,13.10
2022-07-30T18:31:12.653Z,7.25
2022-07-30T18:33:16.092Z,6.25
2022-07-30T18:35:17.891Z,9.80
2022-07-30T18:37:19.529Z,7.93
2022-07-30T18:39:21.497Z,8.35
2022-07-30T18:41:23.727Z,6.93
2022-07-30T18:43:26.257Z,7.83
2022-07-30T18:45:28.655Z,9.05
2022-07-30T18:47:31.485Z,7.00
2022-07-30T18:49:37.233Z,9.52
2022-07-30T18:51:39.516Z,9.98
2022-07-30T18:53:41.805Z,12.93
2022-07-30T18:55:43.939Z,11.20
2022-07-30T18:57:45.854Z,9.13
2022-07-30T18:59:48.007Z,10.23
2022-07-30T19:01:50.557Z,13.20
2022-07-30T19:03:52.262Z,9.15
2022-07-30T19:05:54.248Z,10.55
2022-07-30T19:07:58.486Z,12.77
2022-07-30T19:10:00.637Z,9.27
2022-07-30T19:12:05.106Z,8.75
2022-07-30T19:14:07.163Z,7.47
2022-07-30T19:16:11.888Z,10.25
2022-07-30T19:18:13.692Z,7.32
2022-07-30T19:20:15.823Z,14.40
2022-07-30T19:22:17.495Z,11.57
2022-07-30T19:24:32.538Z,9.27
2022-07-30T19:26:34.741Z,7.07
2022-07-30T19:28:39.405Z,9.05
2022-07-30T19:30:41.226Z,7.68
2022-07-30T19:32:43.883Z,9.40
2022-07-30T19:34:45.804Z,9.73
2022-07-30T19:36:47.596Z,8.48
2022-07-30T19:38:50.057Z,7.70
2022-07-30T19:40:51.703Z,9.38
2022-07-30T19:42:55.706Z,8.80
2022-07-30T19:44:57.626Z,10.05
2022-07-30T19:47:00.450Z,23.48
2022-07-30T19:49:02.316Z,11.40
2022-07-30T19:51:20.261Z,10.57
2022-07-30T19:53:22.690Z,9.52
2022-07-30T19:55:35.819Z,10.95
2022-07-30T19:57:53.365Z,13.23
2022-07-30T20:00:00.179Z,9.00
2022-07-30T20:02:06.907Z,7.15
2022-07-30T20:04:12.164Z,8.85
2022-07-30T20:06:18.360Z,9.52
2022-07-30T20:08:24.925Z,6.38
2022-07-30T20:10:26.873Z,8.48
2022-07-30T20:12:31.189Z,8.40
2022-07-30T20:14:33.209Z,10.23
2022-07-30T20:16:35.576Z,7.60
2022-07-30T20:18:40.154Z,6.78
2022-07-30T20:20:43.647Z,10.65
2022-07-30T20:22:45.293Z,7.00
2022-07-30T20:24:50.034Z,11.75
2022-07-30T20:26:52.782Z,7.32
2022-07-30T20:28:54.370Z,6.03
2022-07-30T20:31:00.440Z,7.07
2022-07-30T20:33:02.487Z,6.60
2022-07-30T20:35:07.040Z,9.52
2022-07-30T20:37:15.017Z,9.05
2022-07-30T20:39:24.593Z,9.27
2022-07-30T20:41:26.324Z,6.25
2022-07-30T20:43:28.266Z,9.10
2022-07-30T20:45:40.629Z,8.45
2022-07-30T20:47:56.021Z,9.93
2022-07-30T20:49:58.231Z,6.97
2022-07-30T20:52:00.016Z,11.70
2022-07-30T20:54:02.436Z,9.82
2022-07-30T20:56:04.500Z,7.70
2022-07-30T20:58:16.334Z,10.23
2022-07-30T21:00:18.742Z,8.48
2022-07-30T21:02:26.734Z,10.20
2022-07-30T21:04:30.643Z,11.25
2022-07-30T21:06:32.308Z,9.90
2022-07-30T21:08:43.259Z,8.75
2022-07-30T21:10:46.170Z,8.40
2022-07-30T21:12:52.972Z,14.48
2022-07-30T21:14:55.942Z,19.27
2022-07-30T21:16:57.687Z,16.92
2022-07-30T21:18:59.485Z,18.35
2022-07-30T21:21:05.811Z,18.58
2022-07-30T21:23:11.628Z,10.23
2022-07-30T21:25:13.351Z,14.65
2022-07-30T21:27:15.257Z,20.80
2022-07-30T21:29:18.563Z,14.70
2022-07-30T21:31:20.232Z,13.80
2022-07-30T21:33:41.971Z,12.35
2022-07-30T21:35:43.749Z,15.60
2022-07-30T21:37:45.340Z,16.70
2022-07-30T21:39:47.002Z,15.32
2022-07-30T21:41:50.938Z,15.68
2022-07-30T21:43:52.719Z,12.23
2022-07-30T21:45:55.589Z,16.90
2022-07-30T21:47:57.515Z,17.23
2022-07-30T21:50:01.306Z,17.17
2022-07-30T21:52:05.313Z,13.65
2022-07-30T21:56:12.415Z,15.25
2022-07-30T22:00:44.707Z,14.70
2022-07-30T22:02:54.028Z,16.88
2022-07-30T22:04:56.333Z,18.42
2022-07-30T22:07:01.839Z,14.18
2022-07-30T22:09:10.101Z,16.40
2022-07-30T22:11:20.215Z,13.90
2022-07-30T22:13:22.974Z,12.40
2022-07-30T22:15:25.188Z,17.05
2022-07-30T22:17:37.177Z,16.75
2022-07-30T22:19:49.881Z,14.82
2022-07-30T22:21:51.724Z,16.30
2022-07-30T22:23:58.353Z,16.15
2022-07-30T22:26:02.838Z,17.92
2022-07-30T22:28:05.827Z,18.90
2022-07-30T22:30:10.225Z,13.73
2022-07-30T22:32:15.483Z,14.73
2022-07-30T22:34:17.055Z,13.55
2022-07-30T22:36:19.891Z,15.00
2022-07-30T22:38:28.827Z,18.15
2022-07-30T22:40:30.696Z,12.57
2022-07-30T22:42:32.280Z,15.73
2022-07-30T22:44:38.702Z,15.05
2022-07-30T22:46:43.631Z,13.60
2022-07-30T22:48:45.421Z,18.02
2022-07-30T22:50:48.555Z,18.03
2022-07-30T22:52:59.868Z,15.13
2022-07-30T22:55:11.936Z,14.23
2022-07-30T22:57:13.768Z,18.38
2022-07-30T22:59:15.413Z,15.68
2022-07-30T23:01:17.713Z,16.97
2022-07-30T23:03:19.574Z,13.87
2022-07-30T23:05:21.382Z,18.73
2022-07-30T23:07:23.480Z,14.43
2022-07-30T23:09:26.645Z,15.32
2022-07-30T23:11:37.415Z,17.90
2022-07-30T23:12:27.882Z,18.15
2022-07-30T23:13:39.474Z,15.80
2022-07-30T23:15:41.239Z,15.30
2022-07-30T23:17:43.462Z,15.90
2022-07-30T23:19:45.190Z,20.15
2022-07-30T23:21:48.627Z,16.10
2022-07-30T23:23:50.477Z,17.88
2022-07-30T23:25:52.040Z,17.73
2022-07-30T23:27:53.854Z,16.45
2022-07-30T23:29:55.454Z,20.15
2022-07-30T23:31:57.073Z,13.02
2022-07-30T23:33:58.826Z,17.83
2022-07-30T23:36:00.986Z,13.70
2022-07-30T23:38:02.642Z,16.10
2022-07-30T23:40:05.118Z,14.15
2022-07-30T23:42:06.717Z,15.82
2022-07-30T23:44:08.391Z,15.70
2022-07-30T23:46:11.241Z,21.50
2022-07-30T23:48:12.910Z,13.85
2022-07-30T23:50:14.478Z,17.50
2022-07-30T23:52:16.463Z,17.15
2022-07-30T23:54:18.514Z,13.38
2022-07-30T23:56:20.129Z,13.30
2022-07-30T23:58:23.811Z,18.70
